Time;durP1;ratioP1;P1;durP2;ratioP2;P2;SDS_P1;SDS_P2;PMS_P1;PMS_P2;Temp;Humidity;BMP_temperature;BMP_pressure;BME280_temperature;BME280_humidity;BME280_pressure;Samples;Min_cycle;Max_cycle;Signal;HPM_P1;HPM_P2
2022/03/14 00:02:12;;;;;;;1.90;1.20;;;;;;;9.47;nan;99900.94;4901728;29;20525;-74
2022/03/14 00:04:38;;;;;;;1.80;0.80;;;;;;;9.44;nan;99911.59;4902680;29;20335;-75
2022/03/14 00:07:05;;;;;;;3.87;0.90;;;;;;;9.39;nan;99918.84;4901897;29;20880;-75
2022/03/14 00:09:30;;;;;;;1.00;0.80;;;;;;;9.32;nan;99938.47;4896983;29;20754;-74
2022/03/14 00:11:57;;;;;;;1.70;0.80;;;;;;;9.23;nan;99945.03;4900175;29;20317;-75
2022/03/14 00:14:25;;;;;;;1.25;0.88;;;;;;;9.16;nan;99961.19;4901132;29;20206;-74
2022/03/14 00:16:51;;;;;;;1.23;0.65;;;;;;;9.06;nan;99979.16;4898761;29;20214;-75
2022/03/14 00:19:20;;;;;;;0.70;0.60;;;;;;;8.95;nan;99976.25;4901369;29;20209;-75
2022/03/14 00:21:46;;;;;;;0.60;0.60;;;;;;;8.82;nan;99976.00;4896579;29;20636;-75
2022/03/14 00:24:12;;;;;;;0.75;0.73;;;;;;;8.71;nan;99994.03;4899310;29;20613;-75
2022/03/14 00:26:39;;;;;;;1.67;0.67;;;;;;;8.58;nan;99997.25;4896272;29;20233;-74
2022/03/14 00:29:08;;;;;;;0.60;0.50;;;;;;;8.48;nan;99996.03;4901230;29;20462;-75
2022/03/14 00:31:35;;;;;;;0.85;0.60;;;;;;;8.44;nan;99998.84;4897254;29;20608;-76
2022/03/14 00:34:01;;;;;;;0.70;0.60;;;;;;;8.33;nan;100005.41;4896049;29;20218;-75
2022/03/14 00:36:28;;;;;;;0.60;0.50;;;;;;;8.28;nan;99991.69;4882325;29;20246;-75
2022/03/14 00:38:55;;;;;;;0.97;0.83;;;;;;;8.20;nan;99992.06;4893590;29;20208;-75
2022/03/14 00:41:21;;;;;;;0.88;0.88;;;;;;;8.16;nan;99990.53;4902105;29;20225;-75
2022/03/14 00:43:47;;;;;;;0.70;0.60;;;;;;;8.12;nan;99999.44;4899193;29;20869;-74
2022/03/14 00:46:16;;;;;;;1.35;0.85;;;;;;;8.11;nan;99996.91;4899680;29;20494;-75
2022/03/14 00:48:41;;;;;;;0.80;0.60;;;;;;;8.06;nan;100007.56;4889898;29;20652;-75
2022/03/14 00:51:06;;;;;;;1.13;0.70;;;;;;;8.03;nan;100007.72;4901910;29;20202;-75
2022/03/14 00:53:32;;;;;;;1.30;1.00;;;;;;;8.02;nan;100000.81;4900576;29;20254;-75
2022/03/14 00:55:58;;;;;;;1.40;1.00;;;;;;;8.01;nan;100006.94;4899341;29;20220;-74
2022/03/14 00:58:24;;;;;;;0.98;0.88;;;;;;;8.02;nan;100018.25;4912396;29;20210;-74
2022/03/14 01:00:50;;;;;;;1.10;0.87;;;;;;;8.00;nan;100017.50;4904535;29;20214;-75
2022/03/14 01:03:15;;;;;;;1.65;1.35;;;;;;;7.96;nan;100022.84;4896901;29;20272;-75
2022/03/14 01:05:41;;;;;;;1.20;1.10;;;;;;;7.96;nan;100024.63;4895304;29;20230;-75
2022/03/14 01:08:08;;;;;;;1.10;0.93;;;;;;;7.96;nan;100027.22;4900111;29;20220;-76
2022/03/14 01:10:33;;;;;;;1.20;0.90;;;;;;;7.94;nan;100032.53;4899113;29;20226;-75
2022/03/14 01:13:02;;;;;;;1.10;1.00;;;;;;;7.92;nan;100034.38;4897839;29;20234;-75
2022/03/14 01:15:34;;;;;;;1.88;0.95;;;;;;;7.89;nan;100023.22;4899424;29;20846;-75
2022/03/14 01:18:00;;;;;;;1.48;1.25;;;;;;;7.88;nan;100034.56;4896022;29;20202;-75
2022/03/14 01:20:26;;;;;;;0.87;0.80;;;;;;;7.86;nan;100036.44;4898754;29;20202;-75
2022/03/14 01:22:55;;;;;;;2.40;2.20;;;;;;;7.86;nan;100044.28;4897586;29;20241;-75
2022/03/14 01:25:22;;;;;;;1.20;0.75;;;;;;;7.87;nan;100053.81;4898151;29;20394;-75
2022/03/14 01:27:48;;;;;;;1.00;0.90;;;;;;;7.85;nan;100047.78;4896638;29;21371;-75
2022/03/14 01:30:15;;;;;;;1.67;1.07;;;;;;;7.86;nan;100062.59;4899692;29;20206;-75
2022/03/14 01:32:41;;;;;;;1.40;1.00;;;;;;;7.91;nan;100071.06;4897965;29;20723;-74
2022/03/14 01:35:07;;;;;;;1.30;0.97;;;;;;;7.90;nan;100069.38;4897209;29;20470;-75
2022/03/14 01:37:33;;;;;;;1.00;0.85;;;;;;;7.89;nan;100072.91;4897180;29;20266;-75
2022/03/14 01:39:59;;;;;;;1.27;0.80;;;;;;;7.90;nan;100085.06;4899606;29;20687;-75
2022/03/14 01:42:25;;;;;;;1.67;0.87;;;;;;;7.91;nan;100102.44;4894383;29;22998;-75
2022/03/14 01:44:50;;;;;;;1.17;0.97;;;;;;;7.91;nan;100105.94;4899421;29;20761;-75
2022/03/14 01:47:16;;;;;;;1.00;0.90;;;;;;;7.91;nan;100113.78;4899379;29;20740;-74
2022/03/14 01:49:46;;;;;;;1.10;1.00;;;;;;;7.92;nan;100117.25;4898518;29;20206;-73
2022/03/14 01:52:13;;;;;;;4.25;1.02;;;;;;;7.90;nan;100116.44;4896858;29;20237;-75
2022/03/14 01:54:40;;;;;;;1.27;0.88;;;;;;;7.90;nan;100119.06;4894578;29;20229;-74
2022/03/14 01:57:05;;;;;;;1.88;0.85;;;;;;;7.90;nan;100132.13;4898517;29;20221;-74
2022/03/14 01:59:32;;;;;;;1.10;0.80;;;;;;;7.92;nan;100146.00;4884649;29;20236;-75
2022/03/14 02:02:10;;;;;;;0.80;0.70;;;;;;;7.92;nan;100146.00;4885254;29;20485;-75
2022/03/14 02:04:36;;;;;;;0.98;0.90;;;;;;;7.92;nan;100136.38;4897225;29;20259;-74
2022/03/14 02:07:04;;;;;;;0.80;0.80;;;;;;;7.95;nan;100131.00;4892556;29;20231;-74
2022/03/14 02:09:29;;;;;;;0.93;0.82;;;;;;;7.93;nan;100143.31;4898538;29;20362;-74
2022/03/14 02:11:55;;;;;;;1.30;0.80;;;;;;;7.93;nan;100142.47;4895112;29;20233;-74
2022/03/14 02:14:21;;;;;;;0.80;0.80;;;;;;;7.92;nan;100156.47;4894646;29;20224;-75
2022/03/14 02:16:47;;;;;;;0.80;0.68;;;;;;;7.89;nan;100151.38;4899100;29;20460;-75
2022/03/14 02:19:13;;;;;;;0.70;0.60;;;;;;;7.88;nan;100158.34;4900506;29;20273;-74
2022/03/14 02:21:42;;;;;;;0.90;0.80;;;;;;;7.86;nan;100148.91;4898618;29;20244;-74
2022/03/14 02:24:10;;;;;;;0.90;0.80;;;;;;;7.85;nan;100144.56;4876709;29;21121;-74
2022/03/14 02:26:39;;;;;;;1.47;0.87;;;;;;;7.83;nan;100142.03;4894274;29;20226;-74
2022/03/14 02:29:05;;;;;;;0.88;0.80;;;;;;;7.82;nan;100145.56;4893727;29;20465;-74
2022/03/14 02:31:30;;;;;;;0.88;0.80;;;;;;;7.82;nan;100145.56;4896597;29;20501;-74
2022/03/14 02:33:56;;;;;;;1.37;0.80;;;;;;;7.79;nan;100150.06;4897792;29;20475;-74
2022/03/14 02:36:21;;;;;;;0.70;0.70;;;;;;;7.75;nan;100170.28;4898211;29;20213;-74
2022/03/14 02:38:46;;;;;;;0.90;0.70;;;;;;;7.72;nan;100175.63;4897404;29;20252;-74
2022/03/14 02:41:12;;;;;;;0.93;0.80;;;;;;;7.68;nan;100189.75;4894753;29;20289;-74
2022/03/14 02:43:41;;;;;;;0.90;0.80;;;;;;;7.63;nan;100186.47;4901469;29;20230;-74
2022/03/14 02:46:06;;;;;;;1.10;0.67;;;;;;;7.60;nan;100176.16;4902739;29;20231;-75
2022/03/14 02:48:32;;;;;;;0.60;0.60;;;;;;;7.56;nan;100185.91;4901062;29;20265;-74
2022/03/14 02:50:57;;;;;;;2.17;2.07;;;;;;;7.52;nan;100184.31;4901349;29;20245;-73
2022/03/14 02:53:22;;;;;;;0.70;0.60;;;;;;;7.50;nan;100196.59;4905925;29;20246;-74
2022/03/14 02:55:49;;;;;;;1.33;0.67;;;;;;;7.49;nan;100192.28;4902384;29;20201;-74
2022/03/14 02:58:14;;;;;;;1.70;1.60;;;;;;;7.44;nan;100196.84;4566438;29;10000498;-74
2022/03/14 03:00:39;;;;;;;0.77;0.70;;;;;;;7.41;nan;100197.84;4903641;29;20217;-74
2022/03/14 03:03:11;;;;;;;2.60;0.63;;;;;;;7.41;nan;100207.44;4895371;29;20226;-74
2022/03/14 03:05:43;;;;;;;1.30;0.80;;;;;;;7.36;nan;100205.00;4893629;29;20313;-74
2022/03/14 03:08:09;;;;;;;0.60;0.50;;;;;;;7.32;nan;100206.91;4896529;29;20751;-73
2022/03/14 03:10:34;;;;;;;1.40;0.60;;;;;;;7.29;nan;100222.72;4892299;29;20579;-74
2022/03/14 03:13:00;;;;;;;1.00;0.77;;;;;;;7.26;nan;100228.06;4897001;29;20210;-73
2022/03/14 03:15:26;;;;;;;0.67;0.67;;;;;;;7.22;nan;100236.06;4896220;29;20668;-74
2022/03/14 03:17:52;;;;;;;1.00;0.90;;;;;;;7.18;nan;100232.72;4898202;29;20415;-73
2022/03/14 03:20:18;;;;;;;2.28;0.70;;;;;;;7.14;nan;100235.53;4895326;29;20218;-74
2022/03/14 03:22:44;;;;;;;0.73;0.70;;;;;;;7.09;nan;100249.63;4893207;29;20237;-73
2022/03/14 03:25:09;;;;;;;0.70;0.60;;;;;;;7.08;nan;100244.47;4898119;29;20545;-74
2022/03/14 03:27:35;;;;;;;0.70;0.70;;;;;;;7.04;nan;100241.09;4895493;29;20514;-73
2022/03/14 03:30:04;;;;;;;1.17;0.82;;;;;;;7.02;nan;100248.16;4896771;29;20652;-73
2022/03/14 03:32:30;;;;;;;0.90;0.80;;;;;;;7.02;nan;100247.28;4896850;29;20842;-73
2022/03/14 03:34:55;;;;;;;0.80;0.70;;;;;;;7.00;nan;100262.19;4896501;29;20656;-73
2022/03/14 03:37:20;;;;;;;0.97;0.80;;;;;;;6.99;nan;100268.31;4899879;29;20222;-74
2022/03/14 03:39:46;;;;;;;0.70;0.67;;;;;;;6.97;nan;100286.66;4896992;29;20366;-74
2022/03/14 03:42:11;;;;;;;0.93;0.70;;;;;;;6.94;nan;100280.69;4896386;29;20797;-74
2022/03/14 03:44:37;;;;;;;1.90;0.77;;;;;;;6.92;nan;100285.16;4897619;29;20210;-74
2022/03/14 03:47:04;;;;;;;0.87;0.70;;;;;;;6.91;nan;100291.25;4901057;29;20572;-74
2022/03/14 03:49:30;;;;;;;0.82;0.80;;;;;;;6.88;nan;100287.00;4901552;29;20677;-74
2022/03/14 03:51:55;;;;;;;1.17;0.65;;;;;;;6.84;nan;100294.09;4895719;29;20238;-74
2022/03/14 03:54:21;;;;;;;1.90;0.80;;;;;;;6.81;nan;100302.06;4896678;29;20245;-74
2022/03/14 03:56:47;;;;;;;1.03;0.70;;;;;;;6.80;nan;100307.31;4901409;29;20206;-74
2022/03/14 03:59:13;;;;;;;0.70;0.60;;;;;;;6.76;nan;100309.19;4901416;29;20210;-73
2022/03/14 04:01:38;;;;;;;1.98;0.90;;;;;;;6.74;nan;100311.00;4896042;29;20873;-73
2022/03/14 04:04:04;;;;;;;0.80;0.70;;;;;;;6.74;nan;100315.38;4900670;29;20893;-74
2022/03/14 04:06:30;;;;;;;1.90;1.13;;;;;;;6.72;nan;100314.59;4898272;29;20202;-74
2022/03/14 04:08:57;;;;;;;1.42;0.70;;;;;;;6.70;nan;100337.28;4903149;29;20667;-74
2022/03/14 04:11:22;;;;;;;0.75;0.75;;;;;;;6.66;nan;100336.53;4896332;29;20221;-74
2022/03/14 04:13:49;;;;;;;0.93;0.80;;;;;;;6.65;nan;100334.84;4899383;29;20483;-74
2022/03/14 04:16:18;;;;;;;0.70;0.60;;;;;;;6.63;nan;100339.28;4899179;29;20293;-74
2022/03/14 04:18:46;;;;;;;1.73;1.00;;;;;;;6.64;nan;100341.84;4893628;29;20206;-74
2022/03/14 04:21:13;;;;;;;1.47;1.13;;;;;;;6.63;nan;100354.94;4896162;29;20213;-74
2022/03/14 04:23:38;;;;;;;2.55;0.80;;;;;;;6.61;nan;100354.97;4901148;29;20325;-74
2022/03/14 04:26:04;;;;;;;1.80;0.90;;;;;;;6.61;nan;100354.13;4880802;29;20210;-73
2022/03/14 04:28:29;;;;;;;1.40;0.70;;;;;;;6.62;nan;100355.84;4899122;29;20226;-73
2022/03/14 04:30:55;;;;;;;1.33;0.70;;;;;;;6.62;nan;100356.69;4899650;29;20250;-74
2022/03/14 04:33:20;;;;;;;1.53;1.00;;;;;;;6.64;nan;100360.13;4898078;29;20241;-74
2022/03/14 04:35:46;;;;;;;1.60;0.97;;;;;;;6.67;nan;100356.53;4898821;29;20226;-74
2022/03/14 04:38:13;;;;;;;1.55;0.90;;;;;;;6.65;nan;100358.34;4899111;29;20549;-74
2022/03/14 04:40:38;;;;;;;2.27;0.90;;;;;;;6.66;nan;100370.47;4899449;29;20483;-74
2022/03/14 04:43:08;;;;;;;2.93;0.83;;;;;;;6.65;nan;100356.59;4896784;29;20383;-73
2022/03/14 04:45:36;;;;;;;1.23;1.13;;;;;;;6.63;nan;100362.75;4898551;29;20235;-74
2022/03/14 04:48:06;;;;;;;2.67;1.00;;;;;;;6.64;nan;100370.56;4898083;29;20392;-73
2022/03/14 04:50:32;;;;;;;1.42;0.88;;;;;;;6.64;nan;100369.69;4896295;29;20199;-74
2022/03/14 04:52:58;;;;;;;3.35;0.80;;;;;;;6.61;nan;100369.78;4895404;29;20242;-74
2022/03/14 04:55:24;;;;;;;1.57;0.90;;;;;;;6.58;nan;100362.06;4899814;29;20233;-74
2022/03/14 04:57:50;;;;;;;1.30;1.00;;;;;;;6.56;nan;100369.09;4897760;29;20497;-73
2022/03/14 05:00:17;;;;;;;1.55;1.15;;;;;;;6.53;nan;100382.25;4899990;29;20328;-73
2022/03/14 05:02:43;;;;;;;1.38;0.98;;;;;;;6.52;nan;100377.94;4898476;29;20226;-74
2022/03/14 05:05:10;;;;;;;3.33;1.10;;;;;;;6.50;nan;100380.59;4894795;29;20603;-74
2022/03/14 05:07:36;;;;;;;1.95;1.27;;;;;;;6.49;nan;100380.69;4896751;29;20819;-74
2022/03/14 05:10:02;;;;;;;4.60;1.63;;;;;;;6.48;nan;100392.00;4898560;29;20644;-73
2022/03/14 05:12:31;;;;;;;1.60;0.90;;;;;;;6.45;nan;100400.78;4895272;29;20222;-74
2022/03/14 05:14:56;;;;;;;1.40;1.00;;;;;;;6.43;nan;100411.28;4897323;29;20473;-74
2022/03/14 05:17:22;;;;;;;1.20;1.10;;;;;;;6.40;nan;100406.19;4896139;29;20218;-73
2022/03/14 05:19:47;;;;;;;2.80;1.30;;;;;;;6.37;nan;100406.28;4896612;29;20226;-74
2022/03/14 05:22:13;;;;;;;2.10;1.10;;;;;;;6.36;nan;100411.53;4892052;29;20225;-73
2022/03/14 05:24:38;;;;;;;1.23;1.00;;;;;;;6.34;nan;100419.41;4898871;29;20214;-74
2022/03/14 05:27:04;;;;;;;1.50;1.00;;;;;;;6.33;nan;100425.53;4883813;29;20206;-73
2022/03/14 05:29:29;;;;;;;3.40;1.27;;;;;;;6.33;nan;100437.75;4899156;29;20217;-74
2022/03/14 05:31:55;;;;;;;4.37;1.60;;;;;;;6.34;nan;100442.88;4894577;29;20486;-74
2022/03/14 05:34:21;;;;;;;2.42;2.30;;;;;;;6.33;nan;100443.81;4895230;29;20317;-74
2022/03/14 05:36:46;;;;;;;2.87;1.20;;;;;;;6.33;nan;100445.56;4894736;29;20269;-74
2022/03/14 05:39:12;;;;;;;3.93;1.47;;;;;;;6.32;nan;100439.50;4895099;29;20266;-74
2022/03/14 05:41:37;;;;;;;1.40;1.30;;;;;;;6.31;nan;100431.72;4897825;29;20209;-74
2022/03/14 05:44:03;;;;;;;2.30;1.13;;;;;;;6.30;nan;100435.25;4897748;29;20575;-72
2022/03/14 05:46:32;;;;;;;1.30;1.20;;;;;;;6.29;nan;100433.50;4894941;29;20707;-74
2022/03/14 05:48:58;;;;;;;1.60;1.40;;;;;;;6.28;nan;100443.09;4894440;29;20397;-73
2022/03/14 05:51:23;;;;;;;7.17;1.77;;;;;;;6.27;nan;100446.63;4895494;29;20449;-74
2022/03/14 05:53:48;;;;;;;5.77;5.27;;;;;;;6.26;nan;100449.28;4897464;29;20266;-74
2022/03/14 05:56:14;;;;;;;4.03;2.13;;;;;;;6.24;nan;100459.78;4894769;29;20679;-73
2022/03/14 05:58:39;;;;;;;3.07;2.27;;;;;;;6.26;nan;100467.53;4897335;29;20238;-73
2022/03/14 06:01:05;;;;;;;1.70;1.20;;;;;;;6.26;nan;100468.38;4895589;29;20655;-74
2022/03/14 06:03:30;;;;;;;5.13;1.70;;;;;;;6.30;nan;100477.84;4897519;29;20579;-73
2022/03/14 06:05:55;;;;;;;1.80;1.40;;;;;;;6.36;nan;100482.00;4897100;29;20240;-73
2022/03/14 06:08:21;;;;;;;3.10;1.67;;;;;;;6.40;nan;100486.22;4898435;29;20206;-73
2022/03/14 06:10:46;;;;;;;6.87;2.90;;;;;;;6.48;nan;100491.16;4901419;29;20210;-72
2022/03/14 06:13:13;;;;;;;4.60;2.53;;;;;;;6.53;nan;100494.50;4900020;29;20591;-73
2022/03/14 06:15:40;;;;;;;3.67;2.00;;;;;;;6.57;nan;100499.56;4896402;29;20203;-72
2022/03/14 06:18:06;;;;;;;2.95;1.73;;;;;;;6.63;nan;100498.50;4901775;29;20206;-73
2022/03/14 06:20:31;;;;;;;1.93;1.73;;;;;;;6.67;nan;100505.34;4888835;29;20206;-72
2022/03/14 06:22:57;;;;;;;2.93;1.70;;;;;;;6.72;nan;100502.56;4894932;29;22500;-73
2022/03/14 06:25:23;;;;;;;2.70;1.97;;;;;;;6.77;nan;100513.72;4898775;29;20957;-73
2022/03/14 06:27:50;;;;;;;4.60;2.45;;;;;;;6.83;nan;100513.50;4898547;29;20517;-73
2022/03/14 06:30:15;;;;;;;4.43;2.70;;;;;;;6.89;nan;100515.94;4900035;29;20218;-73
2022/03/14 06:32:43;;;;;;;6.80;2.97;;;;;;;6.96;nan;100527.84;4898806;29;20485;-73
2022/03/14 06:35:10;;;;;;;5.75;4.50;;;;;;;7.01;nan;100533.78;4897067;29;20339;-73
2022/03/14 06:37:36;;;;;;;4.90;3.75;;;;;;;7.04;nan;100538.88;4896873;29;20652;-73
2022/03/14 06:40:03;;;;;;;5.90;2.90;;;;;;;7.05;nan;100537.16;4900961;29;20306;-73
2022/03/14 06:42:29;;;;;;;4.43;1.83;;;;;;;7.03;nan;100538.97;4897848;29;20677;-73
2022/03/14 06:45:00;;;;;;;2.50;1.10;;;;;;;7.01;nan;100549.44;4890789;29;20230;-74
2022/03/14 06:47:25;;;;;;;4.78;2.05;;;;;;;7.05;nan;100552.81;4888873;29;20225;-73
2022/03/14 06:49:51;;;;;;;5.03;1.90;;;;;;;7.07;nan;100559.72;4895815;29;20425;-73
2022/03/14 06:52:16;;;;;;;3.80;2.00;;;;;;;7.09;nan;100563.09;4891585;29;20230;-72
2022/03/14 06:54:42;;;;;;;5.60;2.47;;;;;;;7.09;nan;100557.03;4891314;29;20684;-72
2022/03/14 06:57:08;;;;;;;2.63;1.77;;;;;;;7.11;nan;100560.44;4894175;29;20221;-73
2022/03/14 06:59:34;;;;;;;3.03;2.70;;;;;;;7.14;nan;100569.94;4894242;29;20458;-72
2022/03/14 07:02:00;;;;;;;4.35;3.13;;;;;;;7.14;nan;100568.19;4895437;29;20229;-72
2022/03/14 07:04:27;;;;;;;2.43;2.07;;;;;;;7.14;nan;100573.41;4896270;29;20599;-72
2022/03/14 07:06:53;;;;;;;5.80;2.42;;;;;;;7.16;nan;100579.44;4892636;29;20559;-72
2022/03/14 07:09:18;;;;;;;4.23;2.60;;;;;;;7.20;nan;100586.25;4890494;29;20230;-73
2022/03/14 07:11:44;;;;;;;4.70;2.80;;;;;;;7.24;nan;100582.66;4894626;29;20234;-72
2022/03/14 07:14:09;;;;;;;6.80;3.30;;;;;;;7.27;nan;100590.38;4894830;29;20214;-72
2022/03/14 07:16:35;;;;;;;7.53;2.97;;;;;;;7.31;nan;100589.34;4889507;29;20214;-73
2022/03/14 07:19:01;;;;;;;4.80;2.50;;;;;;;7.37;nan;100596.16;4892377;29;20213;-73
2022/03/14 07:21:29;;;;;;;4.90;2.07;;;;;;;7.41;nan;100605.56;4891768;29;21022;-72
2022/03/14 07:23:55;;;;;;;3.38;2.17;;;;;;;7.44;nan;100602.00;4893452;29;20206;-73
2022/03/14 07:26:21;;;;;;;4.20;2.55;;;;;;;7.48;nan;100599.25;4888629;29;20222;-73
2022/03/14 07:28:48;;;;;;;8.50;2.00;;;;;;;7.53;nan;100606.91;4890572;29;21109;-72
2022/03/14 07:31:17;;;;;;;3.25;1.95;;;;;;;7.57;nan;100605.06;4890404;29;20198;-73
2022/03/14 07:33:43;;;;;;;2.80;1.50;;;;;;;7.63;nan;100607.44;4890629;29;20230;-73
2022/03/14 07:36:09;;;;;;;2.95;1.70;;;;;;;7.66;nan;100615.16;4889249;29;20203;-72
2022/03/14 07:38:35;;;;;;;6.40;3.65;;;;;;;7.72;nan;100621.06;4889258;29;20206;-72
2022/03/14 07:41:01;;;;;;;5.20;2.37;;;;;;;7.80;nan;100612.91;4895268;29;20210;-73
2022/03/14 07:43:27;;;;;;;6.78;2.65;;;;;;;7.90;nan;100623.91;4893326;29;20703;-73
2022/03/14 07:45:52;;;;;;;2.20;1.57;;;;;;;8.00;nan;100620.06;4899030;29;20234;-72
2022/03/14 07:48:18;;;;;;;5.30;1.53;;;;;;;8.09;nan;100631.94;4898165;29;20214;-72
2022/03/14 07:50:44;;;;;;;2.95;1.00;;;;;;;8.19;nan;100638.53;4895021;29;20210;-73
2022/03/14 07:53:10;;;;;;;3.03;1.40;;;;;;;8.29;nan;100641.66;4898314;29;20428;-73
2022/03/14 07:55:35;;;;;;;2.17;1.20;;;;;;;8.33;nan;100646.72;4896041;29;20635;-72
2022/03/14 07:58:01;;;;;;;2.63;1.30;;;;;;;8.38;nan;100651.78;4897632;29;20928;-73
2022/03/14 08:00:26;;;;;;;2.60;1.60;;;;;;;8.45;nan;100645.41;4899114;29;20229;-73
2022/03/14 08:02:52;;;;;;;3.70;1.70;;;;;;;8.58;nan;100644.03;4898098;29;20494;-73
2022/03/14 08:05:24;;;;;;;4.40;1.70;;;;;;;8.67;nan;100644.59;4898819;29;20494;-72
2022/03/14 08:07:50;;;;;;;1.80;0.95;;;;;;;8.74;nan;100635.59;4898989;29;20933;-73
2022/03/14 08:10:17;;;;;;;2.05;1.25;;;;;;;8.83;nan;100643.06;4897756;29;20475;-73
2022/03/14 08:12:53;;;;;;;1.92;1.23;;;;;;;9.37;nan;100641.75;4897725;29;20237;-72
2022/03/14 08:15:29;;;;;;;2.42;1.30;;;;;;;10.43;nan;100644.97;4897240;29;20205;-73
2022/03/14 08:17:58;;;;;;;4.05;1.73;;;;;;;11.43;nan;100645.41;4898331;29;20233;-72
2022/03/14 08:20:26;;;;;;;6.00;1.40;;;;;;;12.31;nan;100658.38;4898889;29;20214;-73
2022/03/14 08:22:53;;;;;;;3.05;1.52;;;;;;;12.94;nan;100652.25;4893720;29;20711;-73
2022/03/14 08:25:20;;;;;;;2.47;1.10;;;;;;;13.50;nan;100639.34;4897008;29;20297;-73
2022/03/14 08:27:46;;;;;;;1.17;1.00;;;;;;;13.77;nan;100641.28;4897291;29;20289;-73
2022/03/14 08:30:12;;;;;;;3.40;1.40;;;;;;;14.11;nan;100640.91;4897718;29;20489;-72
2022/03/14 08:32:39;;;;;;;1.70;1.53;;;;;;;14.68;nan;100634.72;4894241;29;20499;-73
2022/03/14 08:35:10;;;;;;;2.53;2.17;;;;;;;15.18;nan;100640.31;4896242;29;20465;-73
2022/03/14 08:37:37;;;;;;;4.28;1.75;;;;;;;15.42;nan;100648.44;4882918;29;21047;-72
2022/03/14 08:40:07;;;;;;;5.75;4.07;;;;;;;15.62;nan;100647.91;4896872;29;20680;-73
2022/03/14 08:42:37;;;;;;;3.72;1.65;;;;;;;15.79;nan;100648.59;4894586;29;20827;-73
2022/03/14 08:45:05;;;;;;;4.88;1.65;;;;;;;15.99;nan;100650.72;4897858;29;20231;-73
2022/03/14 08:47:31;;;;;;;3.20;1.10;;;;;;;16.37;nan;100642.72;4897095;29;20221;-73
2022/03/14 08:49:57;;;;;;;3.72;1.60;;;;;;;16.88;nan;100628.47;4897555;29;20210;-73
2022/03/14 08:52:22;;;;;;;1.90;1.03;;;;;;;17.29;nan;100631.66;4894515;29;20239;-73
2022/03/14 08:54:48;;;;;;;2.13;1.10;;;;;;;17.14;nan;100637.13;4895962;29;20585;-73
2022/03/14 08:57:14;;;;;;;2.00;1.10;;;;;;;16.63;nan;100645.28;4896116;29;20198;-73
2022/03/14 08:59:40;;;;;;;3.10;2.40;;;;;;;16.51;nan;100649.69;4898002;29;20214;-72
2022/03/14 09:02:08;;;;;;;2.67;1.30;;;;;;;16.78;nan;100656.63;4895816;29;20218;-72
2022/03/14 09:04:34;;;;;;;3.45;1.42;;;;;;;17.09;nan;100644.59;4895297;29;20427;-73
2022/03/14 09:06:59;;;;;;;2.10;1.42;;;;;;;17.24;nan;100648.75;4894878;29;20886;-72
2022/03/14 09:09:25;;;;;;;2.90;1.13;;;;;;;17.08;nan;100645.56;4899357;29;20218;-73
2022/03/14 09:11:50;;;;;;;1.93;1.27;;;;;;;17.08;nan;100647.38;4894610;29;20255;-73
2022/03/14 09:14:16;;;;;;;2.13;1.10;;;;;;;17.28;nan;100649.38;4897136;29;20579;-72
2022/03/14 09:16:41;;;;;;;1.53;1.00;;;;;;;17.21;nan;100651.66;4894105;29;20267;-72
2022/03/14 09:19:06;;;;;;;2.50;1.30;;;;;;;17.10;nan;100645.47;4894926;29;20213;-72
2022/03/14 09:21:33;;;;;;;1.67;0.90;;;;;;;17.03;nan;100645.91;4895623;29;20395;-73
2022/03/14 09:24:00;;;;;;;1.92;1.33;;;;;;;17.12;nan;100655.00;4893793;29;20277;-73
2022/03/14 09:26:25;;;;;;;1.65;1.10;;;;;;;17.00;nan;100648.78;4891936;29;20553;-73
2022/03/14 09:28:50;;;;;;;2.70;1.50;;;;;;;16.80;nan;100644.94;4896536;29;20215;-72
2022/03/14 09:31:16;;;;;;;2.23;1.13;;;;;;;16.58;nan;100648.28;4896256;29;20678;-72
2022/03/14 09:33:42;;;;;;;1.90;1.10;;;;;;;16.36;nan;100648.97;4895836;29;20225;-73
2022/03/14 09:36:08;;;;;;;2.40;1.33;;;;;;;15.99;nan;100655.19;4897280;29;20967;-72
2022/03/14 09:38:34;;;;;;;1.35;0.90;;;;;;;15.68;nan;100660.75;4897589;29;20213;-73
2022/03/14 09:41:02;;;;;;;1.93;1.03;;;;;;;15.40;nan;100656.47;4899349;29;20214;-72
2022/03/14 09:43:29;;;;;;;2.78;1.20;;;;;;;15.33;nan;100659.63;4901999;29;21094;-72
2022/03/14 09:45:55;;;;;;;3.58;1.40;;;;;;;14.74;nan;100668.75;4898396;29;20218;-72
2022/03/14 09:48:23;;;;;;;1.90;1.10;;;;;;;14.38;nan;100677.16;4899423;29;20213;-73
2022/03/14 09:50:52;;;;;;;2.28;1.17;;;;;;;14.16;nan;100678.47;4897669;29;20466;-72
2022/03/14 09:53:18;;;;;;;1.10;0.90;;;;;;;14.19;nan;100680.09;4900531;29;20241;-72
2022/03/14 09:55:47;;;;;;;1.97;1.20;;;;;;;14.03;nan;100690.75;4897000;29;20210;-73
2022/03/14 09:58:14;;;;;;;3.65;1.30;;;;;;;13.92;nan;100685.25;4900447;29;20844;-72
2022/03/14 10:00:40;;;;;;;3.10;1.58;;;;;;;13.99;nan;100685.72;4901648;29;20605;-72
2022/03/14 10:03:06;;;;;;;1.70;1.10;;;;;;;13.81;nan;100685.91;4897502;29;21177;-73
2022/03/14 10:05:32;;;;;;;1.80;1.13;;;;;;;13.48;nan;100686.97;4900495;29;20269;-72
2022/03/14 10:07:59;;;;;;;8.50;1.30;;;;;;;13.47;nan;100685.28;4898874;29;20210;-72
2022/03/14 10:10:24;;;;;;;2.35;1.40;;;;;;;13.53;nan;100688.47;4898555;29;20540;-73
2022/03/14 10:12:53;;;;;;;2.03;1.00;;;;;;;13.57;nan;100685.56;4896640;29;20266;-73
2022/03/14 10:15:19;;;;;;;2.45;1.10;;;;;;;13.67;nan;100683.25;4900812;29;20608;-72
2022/03/14 10:17:45;;;;;;;3.40;0.90;;;;;;;13.79;nan;100689.56;4898914;29;20244;-72
2022/03/14 10:20:11;;;;;;;2.77;2.20;;;;;;;13.88;nan;100675.81;4897690;29;20277;-72
2022/03/14 10:22:39;;;;;;;5.93;1.00;;;;;;;13.85;nan;100679.50;4896974;29;21022;-72
2022/03/14 10:25:13;;;;;;;1.77;1.20;;;;;;;13.85;nan;100678.63;4898354;29;20241;-72
2022/03/14 10:27:55;;;;;;;2.10;1.10;;;;;;;13.87;nan;100674.13;4899142;29;20561;-72
2022/03/14 10:30:29;;;;;;;4.53;1.50;;;;;;;13.92;nan;100675.53;4901036;29;20218;-72
2022/03/14 10:33:13;;;;;;;3.70;1.10;;;;;;;14.00;nan;100682.16;4895524;29;20980;-72
2022/03/14 10:35:43;;;;;;;3.15;1.10;;;;;;;13.91;nan;100676.50;4899534;29;20198;-72
2022/03/14 10:38:11;;;;;;;2.28;1.10;;;;;;;13.76;nan;100673.94;4895532;29;20255;-72
2022/03/14 10:40:45;;;;;;;4.63;0.98;;;;;;;13.53;nan;100670.00;4899607;29;20209;-73
2022/03/14 10:43:21;;;;;;;2.30;1.92;;;;;;;13.30;nan;100666.06;4895257;29;20233;-72
2022/03/14 10:45:46;;;;;;;2.47;1.10;;;;;;;13.16;nan;100666.84;4902619;29;20475;-72
2022/03/14 10:48:12;;;;;;;3.10;1.20;;;;;;;13.28;nan;100674.06;4898559;29;20731;-72
2022/03/14 10:50:41;;;;;;;2.83;1.00;;;;;;;13.39;nan;100674.28;4899411;29;20282;-72
2022/03/14 10:53:11;;;;;;;1.13;0.90;;;;;;;13.25;nan;100679.50;4899073;29;20250;-72
2022/03/14 10:55:48;;;;;;;2.70;1.10;;;;;;;13.32;nan;100680.03;4899746;29;20202;-72
2022/03/14 10:58:19;;;;;;;2.97;1.20;;;;;;;13.18;nan;100678.16;4897411;29;20217;-72
2022/03/14 11:00:56;;;;;;;2.75;0.98;;;;;;;13.03;nan;100679.88;4898414;29;20206;-72
2022/03/14 11:03:33;;;;;;;2.00;1.08;;;;;;;13.16;nan;100675.59;4897438;29;20394;-72
2022/03/14 11:06:04;;;;;;;2.22;1.20;;;;;;;13.27;nan;100673.22;4898721;29;20312;-72
2022/03/14 11:08:38;;;;;;;1.92;1.00;;;;;;;13.26;nan;100681.25;4894869;29;20242;-72
2022/03/14 11:11:12;;;;;;;1.63;1.40;;;;;;;13.41;nan;100679.50;4899303;29;20218;-72
2022/03/14 11:13:45;;;;;;;1.98;0.85;;;;;;;13.43;nan;100675.81;4896445;29;20218;-72
2022/03/14 11:16:17;;;;;;;4.38;1.00;;;;;;;13.45;nan;100676.59;4901041;29;20226;-71
2022/03/14 11:18:44;;;;;;;2.92;1.10;;;;;;;13.53;nan;100667.34;4899358;29;20210;-72
2022/03/14 11:21:16;;;;;;;4.63;1.42;;;;;;;13.55;nan;100668.97;4896971;29;20213;-71
2022/03/14 11:23:48;;;;;;;2.45;1.17;;;;;;;13.43;nan;100667.91;4896393;29;20739;-72
2022/03/14 11:26:16;;;;;;;3.17;1.13;;;;;;;13.45;nan;100668.69;4898559;29;20594;-72
2022/03/14 11:28:45;;;;;;;2.00;0.90;;;;;;;13.53;nan;100662.94;4896873;29;20499;-72
2022/03/14 11:31:11;;;;;;;2.58;1.33;;;;;;;13.57;nan;100658.31;4899044;29;20225;-71
2022/03/14 11:33:36;;;;;;;3.60;1.90;;;;;;;13.65;nan;100661.38;4896256;29;20234;-72
2022/03/14 11:36:04;;;;;;;3.30;1.10;;;;;;;13.64;nan;100664.94;4896067;29;20759;-72
2022/03/14 11:38:32;;;;;;;2.25;1.00;;;;;;;13.64;nan;100670.22;4896053;29;20217;-72
2022/03/14 11:40:59;;;;;;;3.10;1.70;;;;;;;13.67;nan;100652.41;4897731;29;20262;-72
2022/03/14 11:43:26;;;;;;;1.05;0.93;;;;;;;13.64;nan;100657.03;4891877;29;20249;-72
2022/03/14 11:45:52;;;;;;;2.55;1.23;;;;;;;13.62;nan;100651.00;4899300;29;20234;-71
2022/03/14 11:48:19;;;;;;;3.60;1.30;;;;;;;13.62;nan;100656.28;4897898;29;20254;-72